Time;durP1;ratioP1;P1;durP2;ratioP2;P2;SDS_P1;SDS_P2;PMS_P1;PMS_P2;Temp;Humidity;BMP_temperature;BMP_pressure;BME280_temperature;BME280_humidity;BME280_pressure;Samples;Min_cycle;Max_cycle;Signal;HPM_P1;HPM_P2
2022/05/05 00:02:02;;;;;;;27.37;25.27;;;;;;;;;;5053873;28;20750;-86
2022/05/05 00:04:29;;;;;;;27.67;25.57;;;;;;;;;;5053620;28;20950;-86
2022/05/05 00:06:56;;;;;;;27.67;25.60;;;;;;;;;;5053776;28;20406;-86
2022/05/05 00:09:25;;;;;;;27.67;25.43;;;;;;;;;;5054011;28;20854;-86
2022/05/05 00:14:39;;;;;;;27.93;25.63;;;;;;;;;;5053423;28;20431;-86
2022/05/05 00:17:08;;;;;;;27.80;25.57;;;;;;;;;;5053790;28;20860;-86
2022/05/05 00:19:37;;;;;;;26.63;24.83;;;;;;;;;;5054138;28;20450;-86
2022/05/05 00:22:05;;;;;;;28.17;26.07;;;;;;;;;;5053864;28;20452;-86
2022/05/05 00:24:34;;;;;;;29.53;26.73;;;;;;;;;;5053886;28;20801;-86
2022/05/05 00:27:02;;;;;;;26.57;24.77;;;;;;;;;;5053593;28;20448;-86
2022/05/05 00:29:29;;;;;;;27.87;25.73;;;;;;;;;;5053884;28;20446;-86
2022/05/05 00:31:57;;;;;;;28.60;26.20;;;;;;;;;;5036141;28;20957;-86
2022/05/05 00:34:24;;;;;;;27.73;25.73;;;;;;;;;;5053757;28;20439;-86
2022/05/05 00:36:51;;;;;;;26.40;24.50;;;;;;;;;;5053708;28;20443;-86
2022/05/05 00:39:19;;;;;;;27.70;25.80;;;;;;;;;;5053442;28;20418;-86
2022/05/05 00:41:48;;;;;;;27.50;25.60;;;;;;;;;;5053540;28;20421;-86
2022/05/05 00:44:16;;;;;;;27.07;24.93;;;;;;;;;;5053426;28;20446;-87
2022/05/05 00:46:48;;;;;;;25.87;24.23;;;;;;;;;;5053427;28;20773;-86
2022/05/05 00:49:15;;;;;;;28.40;25.60;;;;;;;;;;5053361;28;20925;-87
2022/05/05 00:51:43;;;;;;;26.43;24.53;;;;;;;;;;5053343;28;20495;-85
2022/05/05 00:54:10;;;;;;;28.03;25.77;;;;;;;;;;5053413;28;20414;-86
2022/05/05 00:56:38;;;;;;;26.57;24.83;;;;;;;;;;5053230;28;20991;-86
2022/05/05 00:59:07;;;;;;;27.47;25.43;;;;;;;;;;5053643;28;20410;-86
2022/05/05 01:01:35;;;;;;;25.73;24.00;;;;;;;;;;5053593;28;20409;-86
2022/05/05 01:04:03;;;;;;;27.87;25.67;;;;;;;;;;5053604;28;20453;-86
2022/05/05 01:06:31;;;;;;;27.03;24.97;;;;;;;;;;5053448;28;20458;-85
2022/05/05 01:08:58;;;;;;;26.53;24.70;;;;;;;;;;5053467;28;20478;-87
2022/05/05 01:11:28;;;;;;;27.20;25.20;;;;;;;;;;5053331;28;20464;-87
2022/05/05 01:13:56;;;;;;;26.30;24.43;;;;;;;;;;5053442;28;20454;-86
2022/05/05 01:16:24;;;;;;;26.70;24.80;;;;;;;;;;5052823;28;20474;-86
2022/05/05 01:18:55;;;;;;;27.70;25.63;;;;;;;;;;5053053;28;20415;-87
2022/05/05 01:21:24;;;;;;;26.73;24.30;;;;;;;;;;5053079;28;20429;-86
2022/05/05 01:23:51;;;;;;;26.60;24.50;;;;;;;;;;5053120;28;20413;-86
2022/05/05 01:29:03;;;;;;;27.27;25.57;;;;;;;;;;5056671;28;20485;-86
2022/05/05 01:31:31;;;;;;;26.80;24.80;;;;;;;;;;5056496;28;20980;-86
2022/05/05 01:33:58;;;;;;;25.80;24.10;;;;;;;;;;5056537;28;20443;-86
2022/05/05 01:36:27;;;;;;;27.97;25.33;;;;;;;;;;5056437;28;20443;-86
2022/05/05 01:38:54;;;;;;;27.27;25.57;;;;;;;;;;5056708;28;20534;-85
2022/05/05 01:41:22;;;;;;;25.97;24.27;;;;;;;;;;5056429;28;20414;-86
2022/05/05 01:43:49;;;;;;;25.70;23.90;;;;;;;;;;5056305;28;20962;-85
2022/05/05 01:46:16;;;;;;;26.87;25.07;;;;;;;;;;5056655;28;20414;-86
2022/05/05 01:48:44;;;;;;;27.37;25.17;;;;;;;;;;5056852;28;20492;-86
2022/05/05 01:51:11;;;;;;;26.53;24.80;;;;;;;;;;5056798;28;20507;-86
2022/05/05 01:53:40;;;;;;;27.77;25.80;;;;;;;;;;5056074;28;20425;-85
2022/05/05 01:56:08;;;;;;;27.37;25.00;;;;;;;;;;5056343;28;20413;-86
2022/05/05 01:58:36;;;;;;;27.93;25.50;;;;;;;;;;5055919;28;20446;-86
2022/05/05 02:01:04;;;;;;;26.47;24.67;;;;;;;;;;5056278;28;20505;-87
2022/05/05 02:03:31;;;;;;;27.27;24.90;;;;;;;;;;5055907;28;20906;-86
2022/05/05 02:05:58;;;;;;;26.47;24.63;;;;;;;;;;5056423;28;20450;-86
2022/05/05 02:08:26;;;;;;;28.03;25.50;;;;;;;;;;5056252;28;20467;-87
2022/05/05 02:10:55;;;;;;;27.47;25.50;;;;;;;;;;5055696;28;20458;-87
2022/05/05 02:13:23;;;;;;;25.87;24.07;;;;;;;;;;5055731;28;20414;-86
2022/05/05 02:15:50;;;;;;;27.33;25.50;;;;;;;;;;5055609;28;20483;-87
2022/05/05 02:18:18;;;;;;;27.43;25.20;;;;;;;;;;5055593;28;20439;-86
2022/05/05 02:20:45;;;;;;;26.33;24.40;;;;;;;;;;5055772;28;20465;-86
2022/05/05 02:23:14;;;;;;;26.40;24.20;;;;;;;;;;5055544;28;20891;-86
2022/05/05 02:25:41;;;;;;;25.37;23.27;;;;;;;;;;5070868;28;20426;-85
2022/05/05 02:28:10;;;;;;;24.23;22.73;;;;;;;;;;5055096;28;20957;-86
2022/05/05 02:30:37;;;;;;;32.60;23.57;;;;;;;;;;5054737;28;20464;-86
2022/05/05 02:33:05;;;;;;;24.30;22.70;;;;;;;;;;5055261;28;20417;-86
2022/05/05 02:35:32;;;;;;;25.20;23.60;;;;;;;;;;5055722;28;20421;-86
2022/05/05 02:40:44;;;;;;;22.37;20.97;;;;;;;;;;5055439;28;20410;-87
2022/05/05 02:43:13;;;;;;;22.23;20.90;;;;;;;;;;5070579;28;20421;-86
2022/05/05 02:45:40;;;;;;;24.03;22.33;;;;;;;;;;5055466;28;20447;-86
2022/05/05 02:48:08;;;;;;;22.83;21.40;;;;;;;;;;5055296;28;20411;-86
2022/05/05 02:50:36;;;;;;;22.13;20.83;;;;;;;;;;5055224;28;20458;-86
2022/05/05 02:54:47;;;;;;;22.30;21.00;;;;;;;;;;5055441;28;20454;-85
2022/05/05 02:55:50;;;;;;;22.97;21.67;;;;;;;;;;5055044;28;20397;-86
2022/05/05 02:58:18;;;;;;;23.40;22.07;;;;;;;;;;5054871;28;20421;-86
2022/05/05 03:00:46;;;;;;;22.70;21.40;;;;;;;;;;5070383;28;20452;-86
2022/05/05 03:03:13;;;;;;;22.37;20.93;;;;;;;;;;5055246;28;20438;-86
2022/05/05 03:05:40;;;;;;;24.17;22.30;;;;;;;;;;5055133;28;20443;-86
2022/05/05 03:08:08;;;;;;;23.87;22.33;;;;;;;;;;5053997;28;20813;-87
2022/05/05 03:10:36;;;;;;;23.90;22.30;;;;;;;;;;5054800;28;20980;-86
2022/05/05 03:13:03;;;;;;;23.93;22.13;;;;;;;;;;5054027;28;20435;-86
2022/05/05 03:15:33;;;;;;;22.40;21.20;;;;;;;;;;5054908;28;20570;-86
2022/05/05 03:18:00;;;;;;;23.37;21.80;;;;;;;;;;5054929;28;20423;-86
2022/05/05 03:20:28;;;;;;;22.17;20.87;;;;;;;;;;5054759;28;20456;-87
2022/05/05 03:22:55;;;;;;;23.83;22.40;;;;;;;;;;5054704;28;20467;-86
2022/05/05 03:25:22;;;;;;;23.63;22.13;;;;;;;;;;5054334;28;20428;-86
2022/05/05 03:27:50;;;;;;;23.40;22.00;;;;;;;;;;5054434;28;20455;-85
2022/05/05 03:30:18;;;;;;;23.57;21.90;;;;;;;;;;5054167;28;20493;-86
2022/05/05 03:32:47;;;;;;;23.43;21.90;;;;;;;;;;5054442;28;20471;-87
2022/05/05 03:35:14;;;;;;;24.20;22.60;;;;;;;;;;5054418;28;20458;-86
2022/05/05 03:37:41;;;;;;;25.07;23.30;;;;;;;;;;5054258;28;20438;-88
2022/05/05 03:40:09;;;;;;;24.00;22.50;;;;;;;;;;5053934;28;20933;-87
2022/05/05 03:42:36;;;;;;;24.00;22.60;;;;;;;;;;5054329;28;20466;-88
2022/05/05 03:45:04;;;;;;;24.90;23.20;;;;;;;;;;5054002;28;20459;-88
2022/05/05 03:47:31;;;;;;;23.83;22.30;;;;;;;;;;5054294;28;20590;-88
2022/05/05 03:50:00;;;;;;;23.80;22.20;;;;;;;;;;5053414;28;20431;-87
2022/05/05 03:52:27;;;;;;;23.57;22.10;;;;;;;;;;5054106;28;20479;-88
2022/05/05 03:54:55;;;;;;;27.00;25.20;;;;;;;;;;5069822;28;20447;-88
2022/05/05 03:57:22;;;;;;;24.83;23.23;;;;;;;;;;5053055;28;20468;-82
2022/05/05 03:59:50;;;;;;;24.93;23.23;;;;;;;;;;5052972;28;20442;-82
2022/05/05 04:02:17;;;;;;;25.40;23.57;;;;;;;;;;5052933;28;20447;-82
2022/05/05 04:04:44;;;;;;;22.87;21.57;;;;;;;;;;5052643;28;20426;-82
2022/05/05 04:07:13;;;;;;;23.63;22.13;;;;;;;;;;5052633;28;20409;-82
2022/05/05 04:09:40;;;;;;;24.93;23.43;;;;;;;;;;5052434;28;20879;-82
2022/05/05 04:12:08;;;;;;;24.87;23.07;;;;;;;;;;5052741;28;20482;-82
2022/05/05 04:14:35;;;;;;;24.10;22.60;;;;;;;;;;5052368;28;20442;-82
2022/05/05 04:17:03;;;;;;;24.40;22.77;;;;;;;;;;5052410;28;20414;-82
2022/05/05 04:19:30;;;;;;;24.97;23.37;;;;;;;;;;5052497;28;20440;-82
2022/05/05 04:21:57;;;;;;;24.80;23.10;;;;;;;;;;5052514;28;20798;-82
2022/05/05 04:24:26;;;;;;;24.20;22.60;;;;;;;;;;5052571;28;20484;-82
2022/05/05 04:26:54;;;;;;;30.47;24.83;;;;;;;;;;5053194;28;20443;-82
2022/05/05 04:29:21;;;;;;;24.13;22.63;;;;;;;;;;5052830;28;20425;-82
2022/05/05 04:31:48;;;;;;;24.17;22.77;;;;;;;;;;5052329;28;20877;-81
2022/05/05 04:34:16;;;;;;;24.70;23.10;;;;;;;;;;5052088;28;20922;-82
2022/05/05 04:36:43;;;;;;;25.43;23.60;;;;;;;;;;5052623;28;20413;-82
2022/05/05 04:39:10;;;;;;;25.13;23.53;;;;;;;;;;5052229;28;20454;-82
2022/05/05 04:41:39;;;;;;;24.10;22.70;;;;;;;;;;5052603;28;20443;-82
2022/05/05 04:44:06;;;;;;;25.43;23.60;;;;;;;;;;5052082;28;20414;-82
2022/05/05 04:46:34;;;;;;;25.03;23.27;;;;;;;;;;5052366;28;20438;-82
2022/05/05 04:49:01;;;;;;;25.03;23.37;;;;;;;;;;5052556;28;20448;-80
2022/05/05 04:51:28;;;;;;;25.67;23.90;;;;;;;;;;5052507;28;20450;-79
2022/05/05 04:53:55;;;;;;;24.37;22.50;;;;;;;;;;5052264;28;20435;-80
2022/05/05 04:56:23;;;;;;;24.00;22.30;;;;;;;;;;5052048;28;20461;-80
2022/05/05 04:58:51;;;;;;;24.27;22.77;;;;;;;;;;5052234;28;20772;-80
2022/05/05 05:01:19;;;;;;;26.47;24.53;;;;;;;;;;5053573;28;20516;-80
2022/05/05 05:03:46;;;;;;;25.07;23.43;;;;;;;;;;5055884;28;20463;-80
2022/05/05 05:06:13;;;;;;;25.30;23.67;;;;;;;;;;5055818;28;20425;-80
2022/05/05 05:08:42;;;;;;;25.33;23.63;;;;;;;;;;5055978;28;20446;-80
2022/05/05 05:11:10;;;;;;;24.43;22.80;;;;;;;;;;5055554;28;20964;-79
2022/05/05 05:13:37;;;;;;;24.83;23.33;;;;;;;;;;5055634;28;20444;-80
2022/05/05 05:16:07;;;;;;;25.27;23.30;;;;;;;;;;5055721;28;20484;-80
2022/05/05 05:18:34;;;;;;;25.27;23.47;;;;;;;;;;5055489;28;20985;-80
2022/05/05 05:21:01;;;;;;;24.70;23.03;;;;;;;;;;5055463;28;20409;-81
2022/05/05 05:23:28;;;;;;;24.70;23.17;;;;;;;;;;5055513;28;20421;-80
2022/05/05 05:25:56;;;;;;;24.47;22.97;;;;;;;;;;5055418;28;20414;-81
2022/05/05 05:28:23;;;;;;;25.13;23.30;;;;;;;;;;5055567;28;20874;-80
2022/05/05 05:30:50;;;;;;;24.80;23.40;;;;;;;;;;5055306;28;20439;-81
2022/05/05 05:33:19;;;;;;;24.60;23.10;;;;;;;;;;5055474;28;20477;-81
2022/05/05 05:35:47;;;;;;;25.37;23.60;;;;;;;;;;5055642;28;20795;-81
2022/05/05 05:38:14;;;;;;;26.20;24.07;;;;;;;;;;5055148;28;20503;-80
2022/05/05 05:40:42;;;;;;;25.67;23.83;;;;;;;;;;5055126;28;20417;-81
2022/05/05 05:43:09;;;;;;;26.10;24.30;;;;;;;;;;5055120;28;20940;-81
2022/05/05 05:45:36;;;;;;;25.77;24.07;;;;;;;;;;5055370;28;20421;-81
2022/05/05 05:48:04;;;;;;;26.67;24.50;;;;;;;;;;5055283;28;20426;-82
2022/05/05 05:50:33;;;;;;;24.47;22.97;;;;;;;;;;5054828;28;20417;-83
2022/05/05 05:53:00;;;;;;;25.10;23.60;;;;;;;;;;5054872;28;20486;-80
2022/05/05 05:55:28;;;;;;;26.27;24.57;;;;;;;;;;5054827;28;20465;-85
2022/05/05 05:57:55;;;;;;;25.93;24.30;;;;;;;;;;5054697;28;20487;-80
2022/05/05 06:00:23;;;;;;;27.00;25.13;;;;;;;;;;5054553;28;20446;-80
2022/05/05 06:05:37;;;;;;;25.93;23.90;;;;;;;;;;5054770;28;20397;-81
2022/05/05 06:08:05;;;;;;;25.57;24.00;;;;;;;;;;5054724;28;20415;-81
2022/05/05 06:10:32;;;;;;;25.37;23.60;;;;;;;;;;5054673;28;20459;-81
2022/05/05 06:13:00;;;;;;;25.30;23.70;;;;;;;;;;5053813;28;21007;-81
2022/05/05 06:15:27;;;;;;;24.97;23.57;;;;;;;;;;5054887;28;20450;-82
2022/05/05 06:17:56;;;;;;;25.17;23.63;;;;;;;;;;5054473;28;20427;-81
2022/05/05 06:20:23;;;;;;;26.63;25.00;;;;;;;;;;5054562;28;20823;-81
2022/05/05 06:22:52;;;;;;;25.80;24.03;;;;;;;;;;5069825;28;20447;-81
2022/05/05 06:25:20;;;;;;;25.40;23.70;;;;;;;;;;5054708;28;20829;-81
2022/05/05 06:27:48;;;;;;;26.63;24.30;;;;;;;;;;5054712;28;20542;-81
2022/05/05 06:30:16;;;;;;;26.10;24.17;;;;;;;;;;5054700;28;20450;-82
2022/05/05 06:32:44;;;;;;;25.80;24.10;;;;;;;;;;5054323;28;20462;-81
2022/05/05 06:35:12;;;;;;;25.63;23.93;;;;;;;;;;5054505;28;20420;-81
2022/05/05 06:37:40;;;;;;;25.83;24.00;;;;;;;;;;5069736;28;20810;-80
2022/05/05 06:40:10;;;;;;;25.67;23.97;;;;;;;;;;5054136;28;20439;-82
2022/05/05 06:42:37;;;;;;;26.17;24.47;;;;;;;;;;5054189;28;20414;-81
2022/05/05 06:45:06;;;;;;;25.57;23.97;;;;;;;;;;5054093;28;20418;-82
2022/05/05 06:47:33;;;;;;;26.17;24.57;;;;;;;;;;5054363;28;20540;-82
2022/05/05 06:50:00;;;;;;;27.00;25.20;;;;;;;;;;5054219;28;20479;-84
2022/05/05 06:52:28;;;;;;;24.90;23.37;;;;;;;;;;5054789;28;20494;-85
2022/05/05 06:54:55;;;;;;;26.07;24.20;;;;;;;;;;5054853;28;20534;-84
2022/05/05 06:57:24;;;;;;;24.03;22.53;;;;;;;;;;5069842;28;20487;-84
2022/05/05 06:59:52;;;;;;;28.53;26.53;;;;;;;;;;5055424;28;20426;-81
2022/05/05 07:02:19;;;;;;;25.63;24.13;;;;;;;;;;5055227;28;20842;-82
2022/05/05 07:07:27;;;;;;;25.40;23.70;;;;;;;;;;5048880;28;20441;-82
2022/05/05 07:12:41;;;;;;;26.53;24.77;;;;;;;;;;5053573;28;20979;-82
2022/05/05 07:15:09;;;;;;;26.30;24.60;;;;;;;;;;5053888;28;20452;-82
2022/05/05 07:17:36;;;;;;;23.77;22.37;;;;;;;;;;5053787;28;20421;-83
2022/05/05 07:20:04;;;;;;;25.77;23.93;;;;;;;;;;5053685;28;20438;-82
2022/05/05 07:22:32;;;;;;;25.97;23.93;;;;;;;;;;5053985;28;20453;-82
2022/05/05 07:24:59;;;;;;;24.60;23.10;;;;;;;;;;5052867;28;20455;-95
2022/05/05 07:27:27;;;;;;;25.03;23.43;;;;;;;;;;5053752;28;20908;-82
2022/05/05 07:29:56;;;;;;;24.53;23.10;;;;;;;;;;5053522;28;20436;-81
2022/05/05 07:32:23;;;;;;;24.50;22.90;;;;;;;;;;5053087;28;20482;-82
2022/05/05 07:34:50;;;;;;;26.10;24.40;;;;;;;;;;5053515;28;20908;-81
2022/05/05 07:37:18;;;;;;;25.73;23.83;;;;;;;;;;5053245;28;20440;-81
2022/05/05 07:39:45;;;;;;;25.27;23.37;;;;;;;;;;5053439;28;20425;-81
2022/05/05 07:42:12;;;;;;;27.00;24.50;;;;;;;;;;5053081;28;20414;-82
2022/05/05 07:44:40;;;;;;;24.13;22.63;;;;;;;;;;5052999;28;20414;-81
2022/05/05 07:47:09;;;;;;;24.20;22.40;;;;;;;;;;5053086;28;20415;-82
2022/05/05 07:49:36;;;;;;;24.10;22.70;;;;;;;;;;5052757;28;20410;-83
2022/05/05 07:52:03;;;;;;;25.70;24.07;;;;;;;;;;5053171;28;20485;-82
2022/05/05 07:54:38;;;;;;;23.10;21.67;;;;;;;;;;5052904;28;20413;-82
2022/05/05 07:57:07;;;;;;;24.53;22.93;;;;;;;;;;5052883;28;20449;-80
2022/05/05 07:59:34;;;;;;;24.10;22.50;;;;;;;;;;5052791;28;20436;-81
2022/05/05 08:02:02;;;;;;;24.27;22.70;;;;;;;;;;5053066;28;20425;-82
2022/05/05 08:04:31;;;;;;;24.20;22.70;;;;;;;;;;5052728;28;20429;-82
2022/05/05 08:06:59;;;;;;;25.43;23.63;;;;;;;;;;5052985;28;20796;-81
2022/05/05 08:09:26;;;;;;;24.83;23.27;;;;;;;;;;5052957;28;20513;-82
2022/05/05 08:11:53;;;;;;;23.97;22.57;;;;;;;;;;5052877;28;20456;-81
2022/05/05 08:14:21;;;;;;;24.90;23.20;;;;;;;;;;5052536;28;20417;-81
2022/05/05 08:16:48;;;;;;;24.90;23.40;;;;;;;;;;5052971;28;20421;-82
2022/05/05 08:19:15;;;;;;;24.13;22.53;;;;;;;;;;5052649;28;20432;-82
2022/05/05 08:21:44;;;;;;;22.47;21.17;;;;;;;;;;5052629;28;20467;-81
2022/05/05 08:29:42;;;;;;;25.90;24.30;;;;;;;;;;5052439;28;20768;-81
2022/05/05 08:32:09;;;;;;;23.70;22.20;;;;;;;;;;5052233;28;21053;-81
2022/05/05 08:34:37;;;;;;;25.97;23.90;;;;;;;;;;5052861;28;20436;-81
2022/05/05 08:37:06;;;;;;;25.03;23.30;;;;;;;;;;5055155;28;20879;-81
2022/05/05 08:39:33;;;;;;;23.60;22.20;;;;;;;;;;5056818;28;20447;-81
2022/05/05 08:42:00;;;;;;;23.30;22.00;;;;;;;;;;5056669;28;20446;-81
2022/05/05 08:44:28;;;;;;;23.53;22.13;;;;;;;;;;5056436;28;20435;-81
2022/05/05 08:46:57;;;;;;;24.63;22.93;;;;;;;;;;5056540;28;20464;-80
2022/05/05 08:49:24;;;;;;;24.60;23.07;;;;;;;;;;5056531;28;20470;-81
2022/05/05 08:51:53;;;;;;;24.53;22.83;;;;;;;;;;5056151;28;20884;-83
2022/05/05 08:54:23;;;;;;;24.47;22.87;;;;;;;;;;5056301;28;20918;-82
2022/05/05 08:56:50;;;;;;;24.87;23.27;;;;;;;;;;5056126;28;20453;-81
2022/05/05 08:59:18;;;;;;;23.70;22.10;;;;;;;;;;5055939;28;20895;-81
2022/05/05 09:01:45;;;;;;;25.73;23.73;;;;;;;;;;5056011;28;20772;-81
2022/05/05 09:04:13;;;;;;;25.17;23.40;;;;;;;;;;5056193;28;20498;-81
2022/05/05 09:06:44;;;;;;;23.97;22.50;;;;;;;;;;5055962;28;20414;-80
2022/05/05 09:09:26;;;;;;;23.77;22.37;;;;;;;;;;5055920;28;20433;-81
2022/05/05 09:12:06;;;;;;;24.50;22.70;;;;;;;;;;5050971;28;21104;-81
2022/05/05 09:14:36;;;;;;;23.93;22.43;;;;;;;;;;5055712;28;20452;-81
2022/05/05 09:17:05;;;;;;;24.07;22.37;;;;;;;;;;5053939;28;20829;-81
2022/05/05 09:19:36;;;;;;;24.23;22.33;;;;;;;;;;5055597;28;20409;-81
2022/05/05 09:22:04;;;;;;;24.63;22.83;;;;;;;;;;5055279;28;20918;-81
2022/05/05 09:24:36;;;;;;;23.47;21.87;;;;;;;;;;5054379;28;20445;-81
2022/05/05 09:27:19;;;;;;;23.57;22.10;;;;;;;;;;5055673;28;20961;-80
2022/05/05 09:30:00;;;;;;;23.37;21.77;;;;;;;;;;5052286;28;20425;-80
2022/05/05 09:32:31;;;;;;;23.23;21.83;;;;;;;;;;5055346;28;20478;-81
2022/05/05 09:34:59;;;;;;;25.23;23.53;;;;;;;;;;5055427;28;20422;-79
2022/05/05 09:37:27;;;;;;;24.03;22.60;;;;;;;;;;5055964;28;20434;-80
2022/05/05 09:39:59;;;;;;;24.30;22.80;;;;;;;;;;5067270;28;20440;-81
2022/05/05 09:42:36;;;;;;;24.73;22.60;;;;;;;;;;5056289;28;20409;-81
2022/05/05 09:45:13;;;;;;;24.50;22.90;;;;;;;;;;5055364;28;20428;-80
2022/05/05 09:47:41;;;;;;;25.97;24.17;;;;;;;;;;5054122;28;20402;-81
2022/05/05 09:50:09;;;;;;;25.10;23.57;;;;;;;;;;5054900;28;20426;-82
2022/05/05 09:58:10;;;;;;;24.63;22.83;;;;;;;;;;5054449;28;20457;-82
2022/05/05 10:00:48;;;;;;;25.13;23.33;;;;;;;;;;5054478;28;20471;-82
2022/05/05 10:06:17;;;;;;;24.80;23.10;;;;;;;;;;5048972;28;20418;-90
2022/05/05 10:08:46;;;;;;;24.27;22.57;;;;;;;;;;5075489;28;20421;-88
2022/05/05 10:11:15;;;;;;;23.67;22.17;;;;;;;;;;5076833;28;20503;-90
2022/05/05 10:13:45;;;;;;;24.03;22.27;;;;;;;;;;5075999;28;20486;-91
2022/05/05 10:16:14;;;;;;;25.03;23.13;;;;;;;;;;5075417;28;20551;-82
2022/05/05 10:18:42;;;;;;;25.33;23.63;;;;;;;;;;5074247;28;20520;-82
2022/05/05 10:21:11;;;;;;;24.10;22.50;;;;;;;;;;5074495;28;20904;-82
2022/05/05 10:23:42;;;;;;;24.13;22.30;;;;;;;;;;5074149;28;21000;-81
2022/05/05 10:26:13;;;;;;;23.53;22.13;;;;;;;;;;5074412;28;20405;-82
2022/05/05 10:28:43;;;;;;;23.07;21.67;;;;;;;;;;5074132;28;20457;-82
2022/05/05 10:31:14;;;;;;;23.13;21.73;;;;;;;;;;5074400;28;20421;-82
2022/05/05 10:34:08;;;;;;;24.93;23.23;;;;;;;;;;5072628;28;20461;-82
2022/05/05 10:36:36;;;;;;;24.53;22.77;;;;;;;;;;5031829;28;20426;-83
2022/05/05 10:39:17;;;;;;;23.50;22.10;;;;;;;;;;5031756;28;20448;-82
2022/05/05 10:41:45;;;;;;;24.43;22.93;;;;;;;;;;5031827;28;20455;-81
2022/05/05 10:44:23;;;;;;;24.43;22.93;;;;;;;;;;5031657;28;20406;-82
2022/05/05 10:47:02;;;;;;;23.40;22.00;;;;;;;;;;5031564;28;20989;-82
2022/05/05 10:49:49;;;;;;;24.67;22.87;;;;;;;;;;5031525;28;20459;-82
2022/05/05 10:52:32;;;;;;;24.80;22.97;;;;;;;;;;5014894;28;20789;-82
2022/05/05 10:55:19;;;;;;;23.70;22.40;;;;;;;;;;5031847;28;20489;-77
2022/05/05 10:57:46;;;;;;;23.13;21.83;;;;;;;;;;5030759;28;20483;-82
2022/05/05 11:00:18;;;;;;;24.10;22.40;;;;;;;;;;5031108;28;20606;-80
2022/05/05 11:03:00;;;;;;;23.07;21.77;;;;;;;;;;5031483;28;20415;-83
2022/05/05 11:05:29;;;;;;;23.73;22.30;;;;;;;;;;5031711;28;20448;-84
2022/05/05 11:08:26;;;;;;;24.13;22.53;;;;;;;;;;5031452;28;20954;-84
2022/05/05 11:11:39;;;;;;;24.27;22.87;;;;;;;;;;5031588;28;20427;-83
2022/05/05 11:13:43;;;;;;;22.90;21.60;;;;;;;;;;5073155;28;20452;-84
2022/05/05 11:22:06;;;;;;;23.07;21.63;;;;;;;;;;5073604;28;20788;-84
2022/05/05 11:24:34;;;;;;;22.70;21.30;;;;;;;;;;5072609;28;20486;-83
2022/05/05 11:27:01;;;;;;;23.67;22.27;;;;;;;;;;5073530;28;20405;-84
2022/05/05 11:29:32;;;;;;;23.13;21.73;;;;;;;;;;5073061;28;20443;-83
2022/05/05 11:32:00;;;;;;;24.40;23.00;;;;;;;;;;5073515;28;20421;-84
2022/05/05 11:34:34;;;;;;;23.33;21.93;;;;;;;;;;5073347;28;20492;-84
2022/05/05 11:37:02;;;;;;;23.33;21.97;;;;;;;;;;5072546;28;20845;-84
2022/05/05 11:39:30;;;;;;;23.80;22.27;;;;;;;;;;5073695;28;20434;-84
2022/05/05 11:41:58;;;;;;;23.43;22.00;;;;;;;;;;5072758;28;20474;-83
2022/05/05 11:44:27;;;;;;;23.30;22.00;;;;;;;;;;5072466;28;20478;-85
2022/05/05 11:46:56;;;;;;;23.80;22.40;;;;;;;;;;5073493;28;20472;-85
2022/05/05 11:49:24;;;;;;;23.67;22.23;;;;;;;;;;5073597;28;20483;-83
2022/05/05 11:51:55;;;;;;;24.77;23.37;;;;;;;;;;5073322;28;20441;-85
2022/05/05 11:54:26;;;;;;;23.67;22.30;;;;;;;;;;5073087;28;20486;-85
2022/05/05 11:56:54;;;;;;;24.10;22.77;;;;;;;;;;5073136;28;20516;-85
2022/05/05 12:02:09;;;;;;;24.67;23.17;;;;;;;;;;5073375;28;20413;-86
2022/05/05 12:04:37;;;;;;;23.77;22.37;;;;;;;;;;5074774;28;20500;-86
2022/05/05 12:07:07;;;;;;;24.73;23.13;;;;;;;;;;5073838;28;20409;-90
2022/05/05 12:09:35;;;;;;;23.70;22.20;;;;;;;;;;5073659;28;20883;-91
2022/05/05 12:12:12;;;;;;;23.77;22.27;;;;;;;;;;5074582;28;20410;-87
2022/05/05 12:14:44;;;;;;;24.10;22.80;;;;;;;;;;5073513;28;20496;-88
2022/05/05 12:17:14;;;;;;;25.97;24.17;;;;;;;;;;5073447;28;20453;-88
2022/05/05 12:19:48;;;;;;;24.07;22.67;;;;;;;;;;5073359;28;20532;-89
2022/05/05 12:22:21;;;;;;;23.30;22.00;;;;;;;;;;5073970;28;20443;-90
2022/05/05 12:24:49;;;;;;;24.10;22.80;;;;;;;;;;5073493;28;20447;-88
2022/05/05 12:27:17;;;;;;;23.10;21.80;;;;;;;;;;5073136;28;20437;-87
2022/05/05 12:29:45;;;;;;;23.53;22.23;;;;;;;;;;5073177;28;20459;-87
2022/05/05 12:32:13;;;;;;;23.83;22.40;;;;;;;;;;5073598;28;20414;-87
2022/05/05 12:34:41;;;;;;;24.53;23.13;;;;;;;;;;5073168;28;20498;-87
2022/05/05 12:37:14;;;;;;;23.90;22.40;;;;;;;;;;5073184;28;20425;-88
2022/05/05 12:40:06;;;;;;;24.60;23.30;;;;;;;;;;5073643;28;20442;-87
2022/05/05 12:42:43;;;;;;;22.83;21.57;;;;;;;;;;5073401;28;20446;-88
2022/05/05 12:45:14;;;;;;;23.63;22.33;;;;;;;;;;5073284;28;20481;-87
2022/05/05 12:47:42;;;;;;;23.60;22.30;;;;;;;;;;5073109;28;20426;-87
2022/05/05 12:50:24;;;;;;;23.17;21.80;;;;;;;;;;5073005;28;20541;-88
2022/05/05 13:01:07;;;;;;;23.20;21.90;;;;;;;;;;5073603;28;20474;-88
2022/05/05 13:03:36;;;;;;;22.93;21.63;;;;;;;;;;5073611;28;20454;-87
2022/05/05 13:06:04;;;;;;;22.50;21.30;;;;;;;;;;5073494;28;20409;-87
2022/05/05 13:08:32;;;;;;;22.63;21.43;;;;;;;;;;5072033;28;20423;-87
2022/05/05 13:10:59;;;;;;;24.27;22.47;;;;;;;;;;5073152;28;20434;-88
2022/05/05 13:13:28;;;;;;;23.00;21.80;;;;;;;;;;5073287;28;20403;-87
2022/05/05 13:15:55;;;;;;;23.20;22.00;;;;;;;;;;5073197;28;20441;-88
2022/05/05 13:18:23;;;;;;;22.40;21.30;;;;;;;;;;5070701;28;20417;-89
2022/05/05 13:20:50;;;;;;;22.80;21.60;;;;;;;;;;5052704;28;20428;-94
2022/05/05 13:23:17;;;;;;;22.97;21.77;;;;;;;;;;5055884;28;20435;-92
2022/05/05 13:25:45;;;;;;;23.30;22.10;;;;;;;;;;5056412;28;20453;-91
2022/05/05 13:28:13;;;;;;;22.90;21.70;;;;;;;;;;5056540;28;20474;-92
2022/05/05 13:30:42;;;;;;;23.07;21.87;;;;;;;;;;5055240;28;20433;-92
2022/05/05 13:33:09;;;;;;;22.13;21.00;;;;;;;;;;5054993;28;20450;-92
2022/05/05 13:35:37;;;;;;;22.40;21.27;;;;;;;;;;5055162;28;20466;-92
2022/05/05 13:38:04;;;;;;;22.60;21.40;;;;;;;;;;5056338;28;20437;-91
2022/05/05 13:40:32;;;;;;;23.47;21.90;;;;;;;;;;5056554;28;20443;-91
2022/05/05 13:42:59;;;;;;;22.40;21.20;;;;;;;;;;5056306;28;20414;-91
2022/05/05 13:45:27;;;;;;;22.60;21.40;;;;;;;;;;5056618;28;20409;-91
2022/05/05 13:47:56;;;;;;;22.57;21.43;;;;;;;;;;5056105;28;20422;-89
2022/05/05 13:50:24;;;;;;;22.63;21.33;;;;;;;;;;5056043;28;20796;-91
2022/05/05 13:52:51;;;;;;;22.43;21.23;;;;;;;;;;5055801;28;20443;-91
2022/05/05 13:55:19;;;;;;;22.57;21.37;;;;;;;;;;5054930;28;20484;-91
2022/05/05 13:57:47;;;;;;;22.80;21.60;;;;;;;;;;5055838;28;20461;-91
2022/05/05 14:00:14;;;;;;;22.47;21.27;;;;;;;;;;5056232;28;20463;-91
2022/05/05 14:02:42;;;;;;;23.47;22.07;;;;;;;;;;5056109;28;20418;-90
2022/05/05 14:05:12;;;;;;;23.20;22.00;;;;;;;;;;5056049;28;20413;-95
2022/05/05 14:13:09;;;;;;;22.27;21.07;;;;;;;;;;5055836;28;20530;-90
2022/05/05 14:15:37;;;;;;;22.50;21.30;;;;;;;;;;5054445;28;20544;-91
2022/05/05 14:18:05;;;;;;;22.67;21.47;;;;;;;;;;5055768;28;20433;-90
2022/05/05 14:20:33;;;;;;;23.60;22.17;;;;;;;;;;5055332;28;20447;-90
2022/05/05 14:23:01;;;;;;;23.30;22.10;;;;;;;;;;5055680;28;20443;-89
2022/05/05 14:25:29;;;;;;;22.83;21.60;;;;;;;;;;5055470;28;20456;-89
2022/05/05 14:27:56;;;;;;;23.20;22.00;;;;;;;;;;5055302;28;20964;-89
2022/05/05 14:30:24;;;;;;;22.40;21.30;;;;;;;;;;5054288;28;20428;-89
2022/05/05 14:32:51;;;;;;;22.70;21.43;;;;;;;;;;5054826;28;20783;-89
2022/05/05 14:35:20;;;;;;;22.67;21.30;;;;;;;;;;5054235;28;20461;-89
2022/05/05 14:37:48;;;;;;;22.43;21.23;;;;;;;;;;5054894;28;20465;-89
2022/05/05 14:40:16;;;;;;;23.90;22.70;;;;;;;;;;5054990;28;20790;-89
2022/05/05 14:42:43;;;;;;;22.50;21.30;;;;;;;;;;5055828;28;20445;-89
2022/05/05 14:45:16;;;;;;;21.87;20.77;;;;;;;;;;5055444;28;20914;-90
2022/05/05 14:47:44;;;;;;;22.40;21.20;;;;;;;;;;5055813;28;20448;-90
2022/05/05 14:50:11;;;;;;;22.63;21.43;;;;;;;;;;5057220;28;20454;-89
2022/05/05 14:52:39;;;;;;;23.40;22.10;;;;;;;;;;5056322;28;20503;-90
2022/05/05 14:55:09;;;;;;;22.50;21.30;;;;;;;;;;5055700;28;20453;-90
2022/05/05 14:57:38;;;;;;;23.23;22.00;;;;;;;;;;5055700;28;20468;-89
2022/05/05 15:00:06;;;;;;;23.10;21.90;;;;;;;;;;5054617;28;20418;-89
2022/05/05 15:02:33;;;;;;;23.53;22.10;;;;;;;;;;5055207;28;20469;-89
2022/05/05 15:05:01;;;;;;;22.83;21.53;;;;;;;;;;5054433;28;20426;-91
2022/05/05 15:07:28;;;;;;;22.77;21.57;;;;;;;;;;5054472;28;20555;-90
2022/05/05 15:09:56;;;;;;;23.27;21.90;;;;;;;;;;5054357;28;20458;-90
2022/05/05 15:12:25;;;;;;;23.60;22.30;;;;;;;;;;5054390;28;21216;-91
2022/05/05 15:14:52;;;;;;;22.67;21.47;;;;;;;;;;5053138;28;21031;-91
2022/05/05 15:17:20;;;;;;;23.37;22.17;;;;;;;;;;5054115;28;20452;-90
2022/05/05 15:19:47;;;;;;;23.73;22.40;;;;;;;;;;5054408;28;20426;-91